createdAt,value
2019-05-16T00:00:09.003Z,10.30
2019-05-16T00:01:09.492Z,8.10
2019-05-16T00:02:09.006Z,9.70
2019-05-16T00:03:08.992Z,7.60
2019-05-16T00:04:08.966Z,7.70
2019-05-16T00:05:08.952Z,8.50
2019-05-16T00:06:08.943Z,9.40
2019-05-16T00:07:08.940Z,8.20
2019-05-16T00:08:12.506Z,8.00
2019-05-16T00:09:08.910Z,8.30
2019-05-16T00:10:08.900Z,7.60
2019-05-16T00:11:08.882Z,9.70
2019-05-16T00:12:08.904Z,8.30
2019-05-16T00:13:08.866Z,7.70
2019-05-16T00:14:08.858Z,9.60
2019-05-16T00:15:09.321Z,6.40
2019-05-16T00:16:08.837Z,8.50
2019-05-16T00:17:12.805Z,8.60
2019-05-16T00:18:08.844Z,9.20
2019-05-16T00:19:09.226Z,10.30
2019-05-16T00:20:09.551Z,9.20
2019-05-16T00:21:08.905Z,8.40
2019-05-16T00:22:08.857Z,9.80
2019-05-16T00:23:13.354Z,7.80
2019-05-16T00:24:29.772Z,8.80
2019-05-16T00:25:09.134Z,10.20
2019-05-16T00:26:08.724Z,10.10
2019-05-16T00:27:08.718Z,10.90
2019-05-16T00:28:09.042Z,7.60
2019-05-16T00:29:08.698Z,8.10
2019-05-16T00:30:09.160Z,8.10
2019-05-16T00:31:08.834Z,8.50
2019-05-16T00:32:08.734Z,8.60
2019-05-16T00:33:08.660Z,8.30
2019-05-16T00:34:09.604Z,9.60
2019-05-16T00:35:09.256Z,8.40
2019-05-16T00:36:09.215Z,8.70
2019-05-16T00:37:08.803Z,9.20
2019-05-16T00:38:08.929Z,7.30
2019-05-16T00:39:08.597Z,8.70
2019-05-16T00:40:08.610Z,7.60
2019-05-16T00:41:08.661Z,9.50
2019-05-16T00:42:08.879Z,6.50
2019-05-16T00:43:08.546Z,6.80
2019-05-16T00:44:08.678Z,6.70
2019-05-16T00:45:09.160Z,9.70
2019-05-16T00:46:08.518Z,7.70
2019-05-16T00:47:08.897Z,8.10
2019-05-16T00:48:08.961Z,7.00
2019-05-16T00:49:08.553Z,10.00
2019-05-16T00:50:08.897Z,8.10
2019-05-16T00:51:08.464Z,6.80
2019-05-16T00:52:08.450Z,9.00
2019-05-16T00:53:09.159Z,6.50
2019-05-16T00:54:08.434Z,8.80
2019-05-16T00:55:08.614Z,8.00
2019-05-16T00:56:08.420Z,7.60
2019-05-16T00:57:08.643Z,6.50
2019-05-16T00:58:08.907Z,8.20
2019-05-16T00:59:08.383Z,6.60
2019-05-16T01:00:08.381Z,7.20
2019-05-16T01:01:08.729Z,7.40
2019-05-16T01:02:08.983Z,6.50
2019-05-16T01:03:08.354Z,7.70
2019-05-16T01:04:08.328Z,6.80
2019-05-16T01:05:10.377Z,7.70
2019-05-16T01:06:16.622Z,12.80
2019-05-16T01:07:09.286Z,8.90
2019-05-16T01:08:08.319Z,6.70
2019-05-16T01:09:08.737Z,8.80
2019-05-16T01:10:08.953Z,7.60
2019-05-16T01:11:08.245Z,7.90
2019-05-16T01:12:08.521Z,6.20
2019-05-16T01:13:08.234Z,6.40
2019-05-16T01:14:08.548Z,7.60
2019-05-16T01:15:08.228Z,7.30
2019-05-16T01:16:08.780Z,8.20
2019-05-16T01:17:08.608Z,7.80
2019-05-16T01:18:08.243Z,8.70
2019-05-16T01:19:08.613Z,6.60
2019-05-16T01:20:08.741Z,7.10
2019-05-16T01:21:08.158Z,6.30
2019-05-16T01:22:08.433Z,7.30
2019-05-16T01:23:08.939Z,7.00
2019-05-16T01:24:08.126Z,7.40
2019-05-16T01:25:09.441Z,7.70
2019-05-16T01:26:08.089Z,6.20
2019-05-16T01:27:08.362Z,8.30
2019-05-16T01:28:08.822Z,6.80
2019-05-16T01:29:09.101Z,8.50
2019-05-16T01:30:09.026Z,8.40
2019-05-16T01:31:08.584Z,7.30
2019-05-16T01:32:08.490Z,8.10
2019-05-16T01:33:08.849Z,7.70
2019-05-16T01:34:07.996Z,8.30
2019-05-16T01:35:08.405Z,7.60
2019-05-16T01:36:08.957Z,7.60
2019-05-16T01:37:08.386Z,7.10
2019-05-16T01:38:08.668Z,8.40
2019-05-16T01:39:08.125Z,9.40
2019-05-16T01:40:08.236Z,8.50
2019-05-16T01:41:08.757Z,8.20
2019-05-16T01:42:08.111Z,8.70
2019-05-16T01:43:08.621Z,10.70
2019-05-16T01:44:07.994Z,8.70
2019-05-16T01:45:08.251Z,9.40
2019-05-16T01:46:08.446Z,5.80
2019-05-16T01:47:08.997Z,9.00
2019-05-16T01:48:08.383Z,7.10
2019-05-16T01:49:08.305Z,6.40
2019-05-16T01:50:08.704Z,6.10
2019-05-16T01:51:07.938Z,7.40
2019-05-16T01:52:08.528Z,7.80
2019-05-16T01:53:08.611Z,7.00
2019-05-16T01:54:08.725Z,7.30
2019-05-16T01:55:08.418Z,7.10
2019-05-16T01:56:08.561Z,8.70
2019-05-16T01:57:08.186Z,6.20
2019-05-16T01:58:10.049Z,6.50
2019-05-16T01:59:08.835Z,5.30
2019-05-16T02:00:08.419Z,10.80
2019-05-16T02:01:15.714Z,8.60
2019-05-16T02:02:08.356Z,8.30
2019-05-16T02:03:08.297Z,5.80
2019-05-16T02:04:11.906Z,7.00
2019-05-16T02:05:08.246Z,7.40
2019-05-16T02:06:08.867Z,6.80
2019-05-16T02:07:08.557Z,6.10
2019-05-16T02:08:08.890Z,7.60
2019-05-16T02:09:08.111Z,7.20
2019-05-16T02:10:08.571Z,6.20
2019-05-16T02:11:08.575Z,7.90
2019-05-16T02:12:10.572Z,5.90
2019-05-16T02:13:08.475Z,7.80
2019-05-16T02:14:09.466Z,6.60
2019-05-16T02:15:08.012Z,6.20
2019-05-16T02:16:08.273Z,5.60
2019-05-16T02:17:10.878Z,6.30
2019-05-16T02:18:08.292Z,5.80
2019-05-16T02:19:08.225Z,7.90
2019-05-16T02:20:08.758Z,5.80
2019-05-16T02:21:07.865Z,5.50
2019-05-16T02:22:08.955Z,6.90
2019-05-16T02:23:08.044Z,5.10
2019-05-16T02:24:08.838Z,6.10
2019-05-16T02:25:07.789Z,6.70
2019-05-16T02:26:08.010Z,8.20
2019-05-16T02:27:09.600Z,5.40
2019-05-16T02:28:07.419Z,5.50
2019-05-16T02:29:13.350Z,6.90
2019-05-16T02:30:12.034Z,6.90
2019-05-16T02:31:07.416Z,4.90
2019-05-16T02:32:07.389Z,5.10
2019-05-16T02:33:07.378Z,5.10
2019-05-16T02:34:07.368Z,7.20
2019-05-16T02:35:07.346Z,5.30
2019-05-16T02:36:10.699Z,7.10
2019-05-16T02:37:20.122Z,5.30
2019-05-16T02:38:11.161Z,10.00
2019-05-16T02:39:10.920Z,6.80
2019-05-16T02:40:07.295Z,7.30
2019-05-16T02:41:10.518Z,7.40
2019-05-16T02:42:07.283Z,7.00
2019-05-16T02:43:07.258Z,6.90
2019-05-16T02:44:07.259Z,6.80
2019-05-16T02:45:10.672Z,6.50
2019-05-16T02:46:07.217Z,6.60
2019-05-16T02:47:10.606Z,5.20
2019-05-16T02:49:16.122Z,5.80
2019-05-16T02:50:16.099Z,6.20
2019-05-16T02:51:16.095Z,7.50
2019-05-16T02:52:16.095Z,6.30
2019-05-16T02:53:16.082Z,7.60
2019-05-16T02:54:16.066Z,5.20
2019-05-16T02:55:16.044Z,6.50
2019-05-16T02:56:16.036Z,6.30
2019-05-16T02:57:16.039Z,6.40
2019-05-16T02:58:16.014Z,7.30
2019-05-16T02:59:16.012Z,8.10
2019-05-16T03:00:15.992Z,6.90
2019-05-16T03:01:15.995Z,6.60
2019-05-16T03:02:15.977Z,8.10
2019-05-16T03:03:15.980Z,5.70
2019-05-16T03:04:15.948Z,6.80
2019-05-16T03:05:15.941Z,7.60
2019-05-16T03:06:15.941Z,7.60
2019-05-16T03:07:32.811Z,5.30
2019-05-16T03:08:16.910Z,5.90
2019-05-16T03:09:15.898Z,7.20
2019-05-16T03:10:15.894Z,8.00
2019-05-16T03:11:15.889Z,5.80
2019-05-16T03:12:15.868Z,5.00
2019-05-16T03:13:15.869Z,5.50
2019-05-16T03:14:15.838Z,8.00
2019-05-16T03:15:15.836Z,7.00
2019-05-16T03:16:15.818Z,7.30
2019-05-16T03:17:15.824Z,7.50
2019-05-16T03:18:15.798Z,7.50
2019-05-16T03:19:15.799Z,8.40
2019-05-16T03:20:15.782Z,5.90
2019-05-16T03:21:15.764Z,7.90
2019-05-16T03:22:15.773Z,6.00
2019-05-16T03:23:15.766Z,7.30
2019-05-16T03:24:15.746Z,6.40
2019-05-16T03:25:15.735Z,6.30
2019-05-16T03:26:15.712Z,5.90
2019-05-16T03:27:15.723Z,6.80
2019-05-16T03:28:15.706Z,6.00
2019-05-16T03:29:15.679Z,7.20
2019-05-16T03:30:17.058Z,5.50
2019-05-16T03:31:16.034Z,5.00
2019-05-16T03:32:15.650Z,8.10
2019-05-16T03:33:24.276Z,5.40
2019-05-16T03:34:17.277Z,6.10
2019-05-16T03:35:16.929Z,5.50
2019-05-16T03:36:16.249Z,5.50
2019-05-16T03:37:15.587Z,4.60
2019-05-16T03:38:15.597Z,5.10
2019-05-16T03:39:15.576Z,6.70
2019-05-16T03:40:15.567Z,8.20
2019-05-16T03:41:15.569Z,4.60
2019-05-16T03:42:15.551Z,4.40
2019-05-16T03:43:15.560Z,4.70
2019-05-16T03:44:15.516Z,4.10
2019-05-16T03:45:15.523Z,5.50
2019-05-16T03:46:15.523Z,3.50
2019-05-16T03:47:15.522Z,5.30
2019-05-16T03:48:15.473Z,3.70
2019-05-16T03:49:15.462Z,3.90
2019-05-16T03:50:15.451Z,4.10
2019-05-16T03:51:15.467Z,4.70
2019-05-16T03:52:15.434Z,5.90
2019-05-16T03:53:15.419Z,4.90
2019-05-16T03:54:15.443Z,4.60
2019-05-16T03:55:15.405Z,6.10
2019-05-16T03:56:15.409Z,5.30
2019-05-16T03:57:15.378Z,3.70
2019-05-16T03:58:15.367Z,6.60
2019-05-16T03:59:15.370Z,6.20
2019-05-16T04:00:15.359Z,3.70
2019-05-16T04:01:15.337Z,5.70
2019-05-16T04:02:15.337Z,4.20
2019-05-16T04:03:15.305Z,7.70
2019-05-16T04:04:15.322Z,3.70
2019-05-16T04:05:15.290Z,5.30
2019-05-16T04:06:15.275Z,5.70
2019-05-16T04:07:15.277Z,3.80
2019-05-16T04:08:20.790Z,6.30
2019-05-16T04:09:16.268Z,4.30
2019-05-16T04:10:15.253Z,4.20
2019-05-16T04:11:18.441Z,5.40
2019-05-16T04:12:16.221Z,5.30
2019-05-16T04:13:15.263Z,3.90
2019-05-16T04:14:15.247Z,6.00
2019-05-16T04:15:15.218Z,4.70
2019-05-16T04:16:15.194Z,4.90
2019-05-16T04:17:15.174Z,3.00
2019-05-16T04:18:15.149Z,4.80
2019-05-16T04:19:15.190Z,4.70
2019-05-16T04:20:15.136Z,5.40
2019-05-16T04:21:17.527Z,4.60
2019-05-16T04:22:15.127Z,4.00
2019-05-16T04:23:15.117Z,3.90
2019-05-16T04:24:15.114Z,3.90
2019-05-16T04:25:15.079Z,3.60
2019-05-16T04:26:15.068Z,3.10
2019-05-16T04:27:15.080Z,3.50
2019-05-16T04:28:15.055Z,4.50
2019-05-16T04:29:15.067Z,2.90
2019-05-16T04:30:15.023Z,4.40
2019-05-16T04:31:15.021Z,5.50
2019-05-16T04:32:15.000Z,4.20
2019-05-16T04:33:14.997Z,6.40
2019-05-16T04:34:15.004Z,6.20
2019-05-16T04:35:14.979Z,4.60
2019-05-16T04:36:14.972Z,5.60
2019-05-16T04:37:14.965Z,4.00
2019-05-16T04:38:30.181Z,6.70
2019-05-16T04:39:15.921Z,6.60
2019-05-16T04:40:14.925Z,4.80
2019-05-16T04:41:14.928Z,4.80
2019-05-16T04:42:14.938Z,8.50
2019-05-16T04:43:14.900Z,4.90
2019-05-16T04:44:14.882Z,6.20
2019-05-16T04:45:14.868Z,5.10
2019-05-16T04:46:14.874Z,4.80
2019-05-16T04:47:14.843Z,5.00
2019-05-16T04:48:14.828Z,6.30
2019-05-16T04:49:14.837Z,5.40
2019-05-16T04:50:14.817Z,7.30
2019-05-16T04:51:14.806Z,4.20
2019-05-16T04:52:14.813Z,4.30
2019-05-16T04:53:14.781Z,4.80
2019-05-16T04:54:14.764Z,4.70
2019-05-16T04:55:14.764Z,3.80
2019-05-16T04:56:14.757Z,5.60
2019-05-16T04:57:14.745Z,6.50
2019-05-16T04:58:14.727Z,4.60
2019-05-16T04:59:16.675Z,6.30
2019-05-16T05:00:14.713Z,4.70
2019-05-16T05:01:14.717Z,4.30
2019-05-16T05:02:14.710Z,4.90
2019-05-16T05:03:14.671Z,8.80
2019-05-16T05:04:15.575Z,7.10
2019-05-16T05:05:14.665Z,3.60
2019-05-16T05:06:14.661Z,5.30
2019-05-16T05:07:14.645Z,4.20
2019-05-16T05:08:14.609Z,6.00
2019-05-16T05:09:14.622Z,4.80
2019-05-16T05:10:14.604Z,6.50
2019-05-16T05:11:14.598Z,6.20
2019-05-16T05:12:14.599Z,7.30
2019-05-16T05:13:14.577Z,5.00
2019-05-16T05:14:14.555Z,5.30
2019-05-16T05:15:14.540Z,4.70
2019-05-16T05:16:14.546Z,6.00
2019-05-16T05:17:14.524Z,6.20
2019-05-16T05:18:14.516Z,6.20
2019-05-16T05:19:16.475Z,6.10
2019-05-16T05:20:14.492Z,5.30
2019-05-16T05:21:14.477Z,4.50
2019-05-16T05:22:14.474Z,7.20
2019-05-16T05:23:14.463Z,6.10
2019-05-16T05:24:14.442Z,5.20
2019-05-16T05:25:14.441Z,4.80
2019-05-16T05:26:14.425Z,5.20
2019-05-16T05:27:14.412Z,5.60
2019-05-16T05:28:14.413Z,6.20
2019-05-16T05:29:14.392Z,5.60
2019-05-16T05:30:14.380Z,7.10
2019-05-16T05:31:14.383Z,6.40
2019-05-16T05:32:14.668Z,6.30
2019-05-16T05:33:14.359Z,5.70
2019-05-16T05:34:14.359Z,5.80
2019-05-16T05:35:14.328Z,4.40
2019-05-16T05:36:14.319Z,4.80
2019-05-16T05:37:14.328Z,4.40
2019-05-16T05:38:15.170Z,5.50
2019-05-16T05:39:15.629Z,5.50
2019-05-16T05:40:14.276Z,4.70
2019-05-16T05:41:14.275Z,5.90
2019-05-16T05:42:14.262Z,5.00
2019-05-16T05:43:14.246Z,4.50
2019-05-16T05:44:14.268Z,6.20
2019-05-16T05:45:14.215Z,7.10
2019-05-16T05:46:14.253Z,5.80
2019-05-16T05:47:14.209Z,5.80
2019-05-16T05:48:14.193Z,5.10
2019-05-16T05:49:14.182Z,7.00
2019-05-16T05:50:14.181Z,3.90
2019-05-16T05:51:14.163Z,5.00
2019-05-16T05:52:14.156Z,5.00
2019-05-16T05:53:14.129Z,5.00
2019-05-16T05:54:14.122Z,3.80
2019-05-16T05:55:14.120Z,5.90
2019-05-16T05:56:14.099Z,8.10
2019-05-16T05:57:14.109Z,3.80
2019-05-16T05:58:14.087Z,6.70
2019-05-16T05:59:14.088Z,5.60
2019-05-16T06:00:14.071Z,5.60
2019-05-16T06:01:14.059Z,8.30
2019-05-16T06:02:14.047Z,5.00
2019-05-16T06:03:14.045Z,7.00
2019-05-16T06:04:14.038Z,7.10
2019-05-16T06:05:14.006Z,4.40
2019-05-16T06:06:13.995Z,6.20
2019-05-16T06:07:14.005Z,5.70
2019-05-16T06:08:13.975Z,6.10
2019-05-16T06:09:25.323Z,5.80
2019-05-16T06:10:14.954Z,6.20
2019-05-16T06:11:13.943Z,6.40
2019-05-16T06:12:13.935Z,5.80
2019-05-16T06:13:13.936Z,4.40
2019-05-16T06:14:13.914Z,5.40
2019-05-16T06:15:13.901Z,7.40
2019-05-16T06:16:13.890Z,7.60
2019-05-16T06:17:13.882Z,4.90
2019-05-16T06:18:13.880Z,5.10
2019-05-16T06:19:13.862Z,5.60
2019-05-16T06:20:14.829Z,4.90
2019-05-16T06:21:13.842Z,5.00
2019-05-16T06:22:13.831Z,6.00
2019-05-16T06:23:13.824Z,4.20
2019-05-16T06:24:16.189Z,4.10
2019-05-16T06:25:14.053Z,5.20
2019-05-16T06:26:13.787Z,5.60
2019-05-16T06:27:13.767Z,4.70
2019-05-16T06:28:13.784Z,5.80
2019-05-16T06:29:13.748Z,5.60
2019-05-16T06:30:13.748Z,6.20
2019-05-16T06:31:14.541Z,5.60
2019-05-16T06:32:13.720Z,5.00
2019-05-16T06:33:13.706Z,5.10
2019-05-16T06:34:15.358Z,5.70
2019-05-16T06:35:13.694Z,7.00
2019-05-16T06:36:13.694Z,3.80
2019-05-16T06:37:13.664Z,5.90
2019-05-16T06:38:13.744Z,4.20
2019-05-16T06:39:13.642Z,3.40
2019-05-16T06:40:13.642Z,4.20
2019-05-16T06:41:13.632Z,3.70
2019-05-16T06:42:13.602Z,7.00
2019-05-16T06:43:13.611Z,4.60
2019-05-16T06:44:13.582Z,4.90
2019-05-16T06:45:13.572Z,4.10
2019-05-16T06:46:13.580Z,3.70
2019-05-16T06:47:19.776Z,3.80
2019-05-16T06:48:14.540Z,6.20
2019-05-16T06:49:13.541Z,4.80
2019-05-16T06:50:13.569Z,5.00
2019-05-16T06:51:13.510Z,5.40
2019-05-16T06:52:13.507Z,6.40
2019-05-16T06:53:13.497Z,5.30
2019-05-16T06:54:13.489Z,4.70
2019-05-16T06:55:13.480Z,4.00
2019-05-16T06:56:13.457Z,7.40
2019-05-16T06:57:13.446Z,4.80
2019-05-16T06:58:13.437Z,7.40
2019-05-16T06:59:13.433Z,4.00
2019-05-16T07:00:13.426Z,6.40
2019-05-16T07:01:13.424Z,5.40
2019-05-16T07:02:26.488Z,3.60
2019-05-16T07:03:14.385Z,4.80
2019-05-16T07:04:13.374Z,7.00
2019-05-16T07:05:13.369Z,5.10
2019-05-16T07:06:29.594Z,4.30
2019-05-16T07:07:14.356Z,6.70
2019-05-16T07:08:13.327Z,3.80
2019-05-16T07:09:13.331Z,4.90
2019-05-16T07:10:13.315Z,4.10
2019-05-16T07:11:13.318Z,4.10
2019-05-16T07:12:13.320Z,6.70
2019-05-16T07:13:13.292Z,6.40
2019-05-16T07:14:13.285Z,4.20
2019-05-16T07:15:13.280Z,4.20
2019-05-16T07:16:13.249Z,4.70
2019-05-16T07:17:13.240Z,4.90
2019-05-16T07:18:13.301Z,5.30
2019-05-16T07:19:13.230Z,4.50
2019-05-16T07:20:13.198Z,5.20
2019-05-16T07:21:13.186Z,7.10
2019-05-16T07:22:13.196Z,4.30
2019-05-16T07:23:13.168Z,3.30
2019-05-16T07:24:13.157Z,4.00
2019-05-16T07:25:13.145Z,4.00
2019-05-16T07:26:13.144Z,4.30
2019-05-16T07:27:13.153Z,5.20
2019-05-16T07:28:13.114Z,3.80
2019-05-16T07:29:13.111Z,5.50
2019-05-16T07:30:13.094Z,3.70
2019-05-16T07:31:18.324Z,5.30
2019-05-16T07:32:14.075Z,3.10
2019-05-16T07:33:13.076Z,4.70
2019-05-16T07:34:14.681Z,4.50
2019-05-16T07:35:13.043Z,4.50
2019-05-16T07:36:15.828Z,4.10
2019-05-16T07:37:13.043Z,4.10
2019-05-16T07:38:13.022Z,5.50
2019-05-16T07:39:13.003Z,4.20
2019-05-16T07:40:22.603Z,5.10
2019-05-16T07:41:14.255Z,4.80
2019-05-16T07:42:12.974Z,4.70
2019-05-16T07:43:12.971Z,5.50
2019-05-16T07:44:12.953Z,3.70
2019-05-16T07:45:12.934Z,4.10
2019-05-16T07:46:12.930Z,3.70
2019-05-16T07:47:12.922Z,3.80
2019-05-16T07:48:12.912Z,4.90
2019-05-16T07:49:13.408Z,3.80
2019-05-16T07:50:12.878Z,4.00
2019-05-16T07:51:12.869Z,3.60
2019-05-16T07:52:12.857Z,4.20
2019-05-16T07:53:12.861Z,4.60
2019-05-16T07:54:12.830Z,4.10
2019-05-16T07:55:13.019Z,3.60
2019-05-16T07:56:12.826Z,3.60
2019-05-16T07:57:19.601Z,4.40
2019-05-16T07:58:13.797Z,6.20
2019-05-16T07:59:12.816Z,4.00
2019-05-16T08:00:12.776Z,3.10
2019-05-16T08:01:13.123Z,4.50
2019-05-16T08:02:12.758Z,4.40
2019-05-16T08:03:13.063Z,5.10
2019-05-16T08:04:12.771Z,4.40
2019-05-16T08:05:12.737Z,3.80
2019-05-16T08:06:12.704Z,4.10
2019-05-16T08:07:12.712Z,5.50
2019-05-16T08:08:12.694Z,3.40
2019-05-16T08:09:13.035Z,4.10
2019-05-16T08:10:12.673Z,3.10
2019-05-16T08:11:12.664Z,2.60
2019-05-16T08:12:12.643Z,4.30
2019-05-16T08:13:13.244Z,7.10
2019-05-16T08:14:12.632Z,2.90
2019-05-16T08:15:12.613Z,3.70
2019-05-16T08:16:12.602Z,5.10
2019-05-16T08:17:13.490Z,3.40
2019-05-16T08:18:12.942Z,3.20
2019-05-16T08:19:12.582Z,4.80
2019-05-16T08:20:12.579Z,3.20
2019-05-16T08:21:16.550Z,4.20
2019-05-16T08:22:12.560Z,3.40
2019-05-16T08:23:12.530Z,3.20
2019-05-16T08:24:14.937Z,2.50
2019-05-16T08:25:12.503Z,5.20
2019-05-16T08:26:12.530Z,3.90
2019-05-16T08:27:12.557Z,4.20
2019-05-16T08:28:13.150Z,5.70
2019-05-16T08:29:13.483Z,5.70
2019-05-16T08:30:12.630Z,4.50
2019-05-16T08:31:12.460Z,3.10
2019-05-16T08:32:12.440Z,5.50
2019-05-16T08:33:13.475Z,2.80
2019-05-16T08:34:15.599Z,4.30
2019-05-16T08:35:12.805Z,4.10
2019-05-16T08:36:13.155Z,3.70
2019-05-16T08:38:13.736Z,4.40
2019-05-16T08:39:12.679Z,3.40
2019-05-16T08:40:12.451Z,4.00
2019-05-16T08:41:17.115Z,3.40
2019-05-16T08:42:13.336Z,5.70
2019-05-16T08:43:12.621Z,5.50
2019-05-16T08:44:12.748Z,4.40
2019-05-16T08:45:13.135Z,3.70
2019-05-16T08:46:13.288Z,3.30
2019-05-16T08:47:12.354Z,2.80
2019-05-16T08:48:13.134Z,4.70
2019-05-16T08:49:12.731Z,6.90
2019-05-16T08:50:10.992Z,4.00
2019-05-16T08:50:14.399Z,2.70
2019-05-16T08:51:12.790Z,4.90
2019-05-16T08:52:12.385Z,3.60
2019-05-16T08:53:13.785Z,3.60
2019-05-16T08:54:14.958Z,2.90
2019-05-16T08:55:13.298Z,4.60
2019-05-16T08:56:13.228Z,4.90
2019-05-16T08:57:25.752Z,2.60
2019-05-16T08:58:13.773Z,2.90
2019-05-16T09:01:14.683Z,4.60
2019-05-16T09:02:12.730Z,4.70
2019-05-16T09:03:12.566Z,3.60
2019-05-16T09:04:12.656Z,4.00
2019-05-16T09:05:13.771Z,5.60
2019-05-16T09:06:12.191Z,5.70
2019-05-16T09:07:12.699Z,5.30
2019-05-16T09:08:12.476Z,5.60
2019-05-16T09:09:29.795Z,2.10
2019-05-16T09:10:31.975Z,5.00
2019-05-16T09:10:35.466Z,3.30
2019-05-16T09:10:45.683Z,3.90
2019-05-16T09:11:29.907Z,3.50
2019-05-16T09:12:13.025Z,3.00
2019-05-16T09:13:12.062Z,3.00
2019-05-16T09:14:12.365Z,3.30
2019-05-16T09:15:11.977Z,3.50
2019-05-16T09:16:11.964Z,3.00
2019-05-16T09:17:11.945Z,3.10
2019-05-16T09:18:11.945Z,5.00
2019-05-16T09:19:11.924Z,3.90
2019-05-16T09:20:11.924Z,2.90
2019-05-16T09:21:11.929Z,3.40
2019-05-16T09:22:11.884Z,4.20
2019-05-16T09:23:12.440Z,4.50
2019-05-16T09:24:11.871Z,5.10
2019-05-16T09:25:11.863Z,3.20
2019-05-16T09:26:15.816Z,3.20
2019-05-16T09:27:13.417Z,4.60
2019-05-16T09:28:11.899Z,5.00
2019-05-16T09:29:11.829Z,2.90
2019-05-16T09:30:11.811Z,3.60
2019-05-16T09:31:11.800Z,2.90
2019-05-16T09:32:16.920Z,4.10
2019-05-16T09:33:12.819Z,4.50
2019-05-16T09:34:11.766Z,3.50
2019-05-16T09:35:11.768Z,2.50
2019-05-16T09:36:11.743Z,5.40
2019-05-16T09:37:11.788Z,3.00
2019-05-16T09:38:11.709Z,4.90
2019-05-16T09:39:12.538Z,3.40
2019-05-16T09:40:11.690Z,4.00
2019-05-16T09:41:11.697Z,2.80
2019-05-16T09:42:11.725Z,2.90
2019-05-16T09:43:11.727Z,2.40
2019-05-16T09:44:11.696Z,3.60
2019-05-16T09:45:11.659Z,4.40
2019-05-16T09:46:11.682Z,2.70
2019-05-16T09:47:11.717Z,2.80
2019-05-16T09:48:11.707Z,4.10
2019-05-16T09:49:19.293Z,5.50
2019-05-16T09:50:12.583Z,3.30
2019-05-16T09:51:11.584Z,4.60
2019-05-16T09:52:11.566Z,3.60
2019-05-16T09:53:11.553Z,2.30
2019-05-16T09:54:11.562Z,3.20
2019-05-16T09:55:11.539Z,4.80
2019-05-16T09:56:11.531Z,3.60
2019-05-16T09:57:11.515Z,3.70
2019-05-16T09:58:11.520Z,2.30
2019-05-16T09:59:11.492Z,3.40
2019-05-16T10:00:11.492Z,3.80
2019-05-16T10:01:11.468Z,3.60
2019-05-16T10:02:11.465Z,2.30
2019-05-16T10:03:11.468Z,3.90
2019-05-16T10:04:11.437Z,2.90
2019-05-16T10:05:13.568Z,3.60
2019-05-16T10:06:11.410Z,2.50
2019-05-16T10:08:21.614Z,3.10
2019-05-16T10:09:20.322Z,3.40
2019-05-16T10:10:20.302Z,3.40
2019-05-16T10:11:20.331Z,5.20
2019-05-16T10:12:20.316Z,4.00
2019-05-16T10:13:20.293Z,3.70
2019-05-16T10:14:20.262Z,2.70
2019-05-16T10:15:20.250Z,3.00
2019-05-16T10:16:20.241Z,4.10
2019-05-16T10:17:20.230Z,2.00
2019-05-16T10:18:20.231Z,4.60
2019-05-16T10:19:20.259Z,5.10
2019-05-16T10:20:20.235Z,4.10
2019-05-16T10:21:20.773Z,3.20
2019-05-16T10:22:20.182Z,3.70
2019-05-16T10:23:20.159Z,4.20
2019-05-16T10:24:20.161Z,2.70
2019-05-16T10:25:20.148Z,5.00
2019-05-16T10:26:20.133Z,2.90
2019-05-16T10:27:20.128Z,8.20
2019-05-16T10:28:20.303Z,3.40
2019-05-16T10:29:20.096Z,4.60
2019-05-16T10:30:20.106Z,3.20
2019-05-16T10:31:20.075Z,2.20
2019-05-16T10:32:20.066Z,3.10
2019-05-16T10:33:20.054Z,4.50
2019-05-16T10:34:20.035Z,3.10
2019-05-16T10:35:20.044Z,3.60
2019-05-16T10:36:21.599Z,4.30
2019-05-16T10:37:20.035Z,5.40
2019-05-16T10:38:20.013Z,3.40
2019-05-16T10:39:20.012Z,3.50
2019-05-16T10:40:19.992Z,3.50
2019-05-16T10:41:20.010Z,2.80
2019-05-16T10:42:27.439Z,3.60
2019-05-16T10:43:20.961Z,4.40
2019-05-16T10:44:19.962Z,3.00
2019-05-16T10:45:19.921Z,3.10
2019-05-16T10:46:19.921Z,2.00
2019-05-16T10:47:19.934Z,7.70
2019-05-16T10:48:19.893Z,3.40
2019-05-16T10:49:33.351Z,3.50
2019-05-16T10:50:20.869Z,4.70
2019-05-16T10:51:19.886Z,5.10
2019-05-16T10:52:19.857Z,4.00
2019-05-16T10:53:51.514Z,5.20
2019-05-16T10:54:20.924Z,4.20
2019-05-16T10:55:19.916Z,4.70
2019-05-16T10:56:19.820Z,4.50
2019-05-16T10:57:19.889Z,4.90
2019-05-16T10:58:35.561Z,4.40
2019-05-16T11:00:41.465Z,5.80
2019-05-16T11:01:27.337Z,4.90
2019-05-16T11:02:20.796Z,2.60
2019-05-16T11:03:19.756Z,3.80
2019-05-16T11:04:29.300Z,3.30
2019-05-16T11:05:30.048Z,2.40
2019-05-16T11:06:25.599Z,4.30
2019-05-16T11:07:20.694Z,2.80
2019-05-16T11:08:19.683Z,2.80
2019-05-16T11:09:19.666Z,3.30
2019-05-16T11:10:19.656Z,4.50
2019-05-16T11:11:20.127Z,3.70
2019-05-16T11:12:20.459Z,2.70
2019-05-16T11:13:20.372Z,4.00
2019-05-16T11:14:19.628Z,4.10
2019-05-16T11:15:19.612Z,2.50
2019-05-16T11:16:19.604Z,2.20
2019-05-16T11:17:19.600Z,2.60
2019-05-16T11:18:19.578Z,4.00
2019-05-16T11:19:24.227Z,3.60
2019-05-16T11:20:20.654Z,2.10
2019-05-16T11:21:19.584Z,2.70
2019-05-16T11:22:19.553Z,4.00
2019-05-16T11:23:23.257Z,7.80
2019-05-16T11:24:19.546Z,3.40
2019-05-16T11:25:28.343Z,3.40
2019-05-16T11:26:20.504Z,4.30
2019-05-16T11:27:19.497Z,5.10
2019-05-16T11:28:19.505Z,4.50
2019-05-16T11:29:19.456Z,3.20
2019-05-16T11:30:19.494Z,4.80
2019-05-16T11:31:19.450Z,3.30
2019-05-16T11:32:19.447Z,2.20
2019-05-16T11:33:19.436Z,3.40
2019-05-16T11:34:19.405Z,3.50
2019-05-16T11:35:19.396Z,3.80
2019-05-16T11:36:19.376Z,3.10
2019-05-16T11:37:19.387Z,3.70
2019-05-16T11:38:19.365Z,4.40
2019-05-16T11:39:19.344Z,2.20
2019-05-16T11:40:19.603Z,5.80
2019-05-16T11:41:20.685Z,2.70
2019-05-16T11:42:19.324Z,4.80
2019-05-16T11:43:21.873Z,2.70
2019-05-16T11:44:19.300Z,5.20
2019-05-16T11:45:19.312Z,2.40
2019-05-16T11:46:19.277Z,4.50
2019-05-16T11:47:19.281Z,3.60
2019-05-16T11:48:19.251Z,2.30
2019-05-16T11:49:19.257Z,3.90
2019-05-16T11:50:19.241Z,5.80
2019-05-16T11:51:19.269Z,3.70
2019-05-16T11:52:19.224Z,4.00
2019-05-16T11:53:19.222Z,4.50
2019-05-16T11:54:19.191Z,6.00
2019-05-16T11:55:19.182Z,2.80
2019-05-16T11:56:19.182Z,4.00
2019-05-16T11:57:19.172Z,2.90
2019-05-16T11:58:19.201Z,3.50
2019-05-16T11:59:19.148Z,3.20
2019-05-16T12:00:19.117Z,2.80
2019-05-16T12:01:19.131Z,4.60
2019-05-16T12:02:19.879Z,4.00
2019-05-16T12:03:19.097Z,2.60
2019-05-16T12:04:19.095Z,4.50
2019-05-16T12:05:19.065Z,4.70
2019-05-16T12:06:19.065Z,4.10
2019-05-16T12:07:19.455Z,4.60
2019-05-16T12:08:19.034Z,3.10
2019-05-16T12:09:19.069Z,4.10
2019-05-16T12:10:19.014Z,3.80
2019-05-16T12:11:19.027Z,3.30
2019-05-16T12:12:20.980Z,6.40
2019-05-16T12:13:27.648Z,3.40
2019-05-16T12:14:19.987Z,2.50
2019-05-16T12:15:20.045Z,4.70
2019-05-16T12:16:19.053Z,2.90
2019-05-16T12:17:18.941Z,7.20
2019-05-16T12:18:18.940Z,4.40
2019-05-16T12:19:18.933Z,2.90
2019-05-16T12:20:18.910Z,3.50
2019-05-16T12:21:19.000Z,2.70
2019-05-16T12:22:18.946Z,6.50
2019-05-16T12:23:18.878Z,3.80
2019-05-16T12:24:31.863Z,4.70
2019-05-16T12:25:19.868Z,3.30
2019-05-16T12:26:18.849Z,3.90
2019-05-16T12:27:18.955Z,3.40
2019-05-16T12:28:18.836Z,6.10
2019-05-16T12:29:18.811Z,4.40
2019-05-16T12:30:18.803Z,6.00
2019-05-16T12:31:18.832Z,3.70
2019-05-16T12:32:18.798Z,4.30
2019-05-16T12:33:19.096Z,3.60
2019-05-16T12:34:18.757Z,3.70
2019-05-16T12:35:18.746Z,4.10
2019-05-16T12:36:18.747Z,4.20
2019-05-16T12:37:18.740Z,5.50
2019-05-16T12:38:18.716Z,3.70
2019-05-16T12:39:18.721Z,5.50
2019-05-16T12:40:18.696Z,4.80
2019-05-16T12:41:18.717Z,5.20
2019-05-16T12:42:18.671Z,3.20
2019-05-16T12:43:18.692Z,5.30
2019-05-16T12:44:18.651Z,5.70
2019-05-16T12:45:18.637Z,3.90
2019-05-16T12:46:18.638Z,4.10
2019-05-16T12:47:18.619Z,4.80
2019-05-16T12:48:20.390Z,2.80
2019-05-16T12:49:18.601Z,4.00
2019-05-16T12:50:18.598Z,5.90
2019-05-16T12:51:18.572Z,6.90
2019-05-16T12:52:18.626Z,4.10
2019-05-16T12:53:19.024Z,5.10
2019-05-16T12:54:18.596Z,5.10
2019-05-16T12:55:18.554Z,3.90
2019-05-16T12:56:18.520Z,6.30
2019-05-16T12:57:18.848Z,4.60
2019-05-16T12:58:24.977Z,3.10
2019-05-16T12:59:21.660Z,5.40
2019-05-16T13:00:19.166Z,3.50
2019-05-16T13:01:20.801Z,3.00
2019-05-16T13:02:21.642Z,3.60
2019-05-16T13:03:18.468Z,6.80
2019-05-16T13:04:19.196Z,4.00
2019-05-16T13:05:18.425Z,2.70
2019-05-16T13:06:18.414Z,3.50
2019-05-16T13:07:18.417Z,3.40
2019-05-16T13:08:18.396Z,3.70
2019-05-16T13:09:18.683Z,5.10
2019-05-16T13:10:18.372Z,4.70
2019-05-16T13:11:18.364Z,3.50
2019-05-16T13:12:18.369Z,3.80
2019-05-16T13:13:18.352Z,5.90
2019-05-16T13:14:18.362Z,5.10
2019-05-16T13:15:18.463Z,3.70
2019-05-16T13:16:18.312Z,2.30
2019-05-16T13:17:18.295Z,3.40
2019-05-16T13:18:18.281Z,3.90
2019-05-16T13:19:18.455Z,4.10
2019-05-16T13:20:18.325Z,6.10
2019-05-16T13:21:22.215Z,5.40